Time;durP1;ratioP1;P1;durP2;ratioP2;P2;SDS_P1;SDS_P2;PMS_P1;PMS_P2;Temp;Humidity;BMP_temperature;BMP_pressure;BME280_temperature;BME280_humidity;BME280_pressure;Samples;Min_cycle;Max_cycle;Signal;HPM_P1;HPM_P2
2022/07/14 00:01:55;;;;;;;;;;;;;;;;;;5112228;28;20293;-76
2022/07/14 00:04:21;;;;;;;;;;;;;;;;;;5112869;28;19990;-77
2022/07/14 00:06:49;;;;;;;;;;;;;;;;;;5113094;28;19924;-76
2022/07/14 00:09:15;;;;;;;;;;;;;;;;;;5116508;28;19923;-76
2022/07/14 00:11:42;;;;;;;;;;;;;;;;;;5115810;28;19970;-77
2022/07/14 00:14:08;;;;;;;;;;;;;;;;;;5116248;28;19924;-76
2022/07/14 00:16:35;;;;;;;;;;;;;;;;;;5115768;28;19977;-77
2022/07/14 00:19:02;;;;;;;;;;;;;;;;;;5115742;28;20027;-76
2022/07/14 00:21:28;;;;;;;;;;;;;;;;;;5115785;28;19945;-76
2022/07/14 00:23:56;;;;;;;;;;;;;;;;;;5115758;28;20010;-76
2022/07/14 00:26:26;;;;;;;;;;;;;;;;;;5115753;28;19981;-76
2022/07/14 00:28:52;;;;;;;;;;;;;;;;;;5116107;28;19923;-76
2022/07/14 00:31:20;;;;;;;;;;;;;;;;;;5116533;28;19949;-75
2022/07/14 00:33:47;;;;;;;;;;;;;;;;;;5115850;28;19924;-77
2022/07/14 00:36:13;;;;;;;;;;;;;;;;;;5115612;28;19967;-75
2022/07/14 00:38:39;;;;;;;;;;;;;;;;;;5115420;28;19924;-75
2022/07/14 00:41:07;;;;;;;;;;;;;;;;;;5115322;28;20399;-75
2022/07/14 00:43:34;;;;;;;;;;;;;;;;;;5115429;28;19928;-76
2022/07/14 00:46:00;;;;;;;;;;;;;;;;;;5115182;28;20014;-76
2022/07/14 00:48:27;;;;;;;;;;;;;;;;;;5103057;28;19932;-76
2022/07/14 00:50:54;;;;;;;;;;;;;;;;;;5094699;28;19978;-76
2022/07/14 00:53:20;;;;;;;;;;;;;;;;;;5094878;28;20429;-75
2022/07/14 00:55:47;;;;;;;;;;;;;;;;;;5095116;28;19959;-76
2022/07/14 00:58:15;;;;;;;;;;;;;;;;;;5094401;28;19979;-76
2022/07/14 01:00:41;;;;;;;;;;;;;;;;;;5108134;28;20037;-76
2022/07/14 01:03:08;;;;;;;;;;;;;;;;;;5115124;28;19931;-76
2022/07/14 01:05:35;;;;;;;;;;;;;;;;;;5114972;28;19974;-76
2022/07/14 01:08:01;;;;;;;;;;;;;;;;;;5114996;28;20018;-76
2022/07/14 01:10:28;;;;;;;;;;;;;;;;;;5114791;28;19967;-76
2022/07/14 01:12:56;;;;;;;;;;;;;;;;;;5114988;28;19934;-76
2022/07/14 01:15:24;;;;;;;;;;;;;;;;;;5115097;28;19985;-76
2022/07/14 01:17:50;;;;;;;;;;;;;;;;;;5113947;28;19923;-76
2022/07/14 01:20:19;;;;;;;;;;;;;;;;;;5114531;28;19923;-76
2022/07/14 01:22:47;;;;;;;;;;;;;;;;;;5114641;28;19974;-76
2022/07/14 01:25:14;;;;;;;;;;;;;;;;;;5115128;28;20028;-76
2022/07/14 01:27:40;;;;;;;;;;;;;;;;;;5114622;28;19974;-77
2022/07/14 01:30:08;;;;;;;;;;;;;;;;;;5114349;28;19945;-77
2022/07/14 01:32:35;;;;;;;;;;;;;;;;;;5114691;28;19927;-76
2022/07/14 01:35:01;;;;;;;;;;;;;;;;;;5114647;28;19923;-76
2022/07/14 01:37:28;;;;;;;;;;;;;;;;;;5114383;28;19978;-76
2022/07/14 01:39:57;;;;;;;;;;;;;;;;;;5114307;28;19934;-76
2022/07/14 01:42:24;;;;;;;;;;;;;;;;;;5114590;28;20006;-77
2022/07/14 01:44:52;;;;;;;;;;;;;;;;;;5114360;28;20014;-76
2022/07/14 01:47:19;;;;;;;;;;;;;;;;;;5113888;28;19928;-76
2022/07/14 01:49:45;;;;;;;;;;;;;;;;;;5114417;28;20014;-76
2022/07/14 01:52:12;;;;;;;;;;;;;;;;;;5114540;28;20409;-77
2022/07/14 01:54:38;;;;;;;;;;;;;;;;;;5114442;28;20306;-77
2022/07/14 01:57:07;;;;;;;;;;;;;;;;;;5114717;28;19974;-76
2022/07/14 01:59:33;;;;;;;;;;;;;;;;;;5110975;28;19924;-76
2022/07/14 02:02:00;;;;;;;;;;;;;;;;;;5097363;28;19924;-76
2022/07/14 02:04:27;;;;;;;;;;;;;;;;;;5101850;28;19924;-76
2022/07/14 02:06:54;;;;;;;;;;;;;;;;;;5100173;28;19924;-76
2022/07/14 02:09:21;;;;;;;;;;;;;;;;;;5093379;28;19975;-76
2022/07/14 02:14:34;;;;;;;;;;;;;;;;;;5093431;28;19973;-76
2022/07/14 02:17:00;;;;;;;;;;;;;;;;;;5093198;28;19963;-77
2022/07/14 02:19:27;;;;;;;;;;;;;;;;;;5093206;28;20472;-76
2022/07/14 02:21:54;;;;;;;;;;;;;;;;;;5093310;28;20383;-76
2022/07/14 02:24:21;;;;;;;;;;;;;;;;;;5093439;28;19924;-76
2022/07/14 02:26:48;;;;;;;;;;;;;;;;;;5093015;28;19963;-76
2022/07/14 02:29:15;;;;;;;;;;;;;;;;;;5092125;28;20010;-76
2022/07/14 02:31:44;;;;;;;;;;;;;;;;;;5092826;28;19931;-77
2022/07/14 02:34:11;;;;;;;;;;;;;;;;;;5093016;28;19924;-76
2022/07/14 02:36:38;;;;;;;;;;;;;;;;;;5092632;28;20450;-77
2022/07/14 02:39:04;;;;;;;;;;;;;;;;;;5093056;28;19981;-77
2022/07/14 02:41:31;;;;;;;;;;;;;;;;;;5092686;28;19924;-75
2022/07/14 02:43:57;;;;;;;;;;;;;;;;;;5092617;28;19982;-76
2022/07/14 02:46:24;;;;;;;;;;;;;;;;;;5092610;28;19924;-75
2022/07/14 02:48:52;;;;;;;;;;;;;;;;;;5092981;28;19971;-76
2022/07/14 02:51:18;;;;;;;;;;;;;;;;;;5092557;28;20378;-76
2022/07/14 02:53:45;;;;;;;;;;;;;;;;;;5092732;28;19950;-75
2022/07/14 02:56:12;;;;;;;;;;;;;;;;;;5092401;28;19979;-75
2022/07/14 02:58:39;;;;;;;;;;;;;;;;;;5092759;28;20389;-76
2022/07/14 03:01:06;;;;;;;;;;;;;;;;;;5109260;28;20007;-75
2022/07/14 03:03:34;;;;;;;;;;;;;;;;;;5112908;28;19967;-76
2022/07/14 03:06:07;;;;;;;;;;;;;;;;;;5112876;28;19923;-75
2022/07/14 03:08:33;;;;;;;;;;;;;;;;;;5113145;28;20014;-76
2022/07/14 03:10:59;;;;;;;;;;;;;;;;;;5112969;28;20032;-74
2022/07/14 03:13:26;;;;;;;;;;;;;;;;;;5113211;28;19966;-74
2022/07/14 03:15:52;;;;;;;;;;;;;;;;;;5112480;28;20366;-76
2022/07/14 03:18:19;;;;;;;;;;;;;;;;;;5115753;28;20344;-76
2022/07/14 03:20:46;;;;;;;;;;;;;;;;;;5117829;28;19928;-75
2022/07/14 03:23:13;;;;;;;;;;;;;;;;;;5112945;28;19924;-75
2022/07/14 03:25:42;;;;;;;;;;;;;;;;;;5112812;28;20014;-76
2022/07/14 03:28:09;;;;;;;;;;;;;;;;;;5112478;28;19924;-76
2022/07/14 03:30:35;;;;;;;;;;;;;;;;;;5112853;28;19928;-76
2022/07/14 03:33:02;;;;;;;;;;;;;;;;;;5112613;28;19959;-76
2022/07/14 03:35:28;;;;;;;;;;;;;;;;;;5112710;28;19931;-77
2022/07/14 03:37:55;;;;;;;;;;;;;;;;;;5112528;28;20007;-75
2022/07/14 03:40:23;;;;;;;;;;;;;;;;;;5112698;28;19928;-75
2022/07/14 03:42:49;;;;;;;;;;;;;;;;;;5116970;28;20019;-77
2022/07/14 03:45:16;;;;;;;;;;;;;;;;;;5117136;28;19983;-76
2022/07/14 03:47:43;;;;;;;;;;;;;;;;;;5116677;28;19973;-76
2022/07/14 03:50:10;;;;;;;;;;;;;;;;;;5116493;28;19939;-76
2022/07/14 03:52:36;;;;;;;;;;;;;;;;;;5116452;28;19934;-77
2022/07/14 03:55:03;;;;;;;;;;;;;;;;;;5116485;28;20002;-75
2022/07/14 03:57:31;;;;;;;;;;;;;;;;;;5116125;28;20394;-75
2022/07/14 03:59:57;;;;;;;;;;;;;;;;;;5109042;28;20015;-76
2022/07/14 04:02:24;;;;;;;;;;;;;;;;;;5096570;28;19967;-76
2022/07/14 04:04:50;;;;;;;;;;;;;;;;;;5096094;28;20512;-76
2022/07/14 04:07:16;;;;;;;;;;;;;;;;;;5095835;28;19963;-75
2022/07/14 04:09:43;;;;;;;;;;;;;;;;;;5095788;28;19928;-76
2022/07/14 04:12:09;;;;;;;;;;;;;;;;;;5095914;28;19963;-75
2022/07/14 04:14:37;;;;;;;;;;;;;;;;;;5095520;28;20391;-76
2022/07/14 04:17:04;;;;;;;;;;;;;;;;;;5095415;28;20010;-76
2022/07/14 04:19:30;;;;;;;;;;;;;;;;;;5095684;28;19924;-76
2022/07/14 04:21:57;;;;;;;;;;;;;;;;;;5095692;28;19960;-75
2022/07/14 04:24:23;;;;;;;;;;;;;;;;;;5095569;28;20255;-75
2022/07/14 04:26:50;;;;;;;;;;;;;;;;;;5095400;28;20036;-76
2022/07/14 04:29:16;;;;;;;;;;;;;;;;;;5095516;28;19963;-76
2022/07/14 04:31:44;;;;;;;;;;;;;;;;;;5095281;28;20291;-76
2022/07/14 04:34:11;;;;;;;;;;;;;;;;;;5095311;28;20012;-75
2022/07/14 04:36:37;;;;;;;;;;;;;;;;;;5095265;28;20014;-75
2022/07/14 04:39:05;;;;;;;;;;;;;;;;;;5095149;28;19973;-76
2022/07/14 04:41:31;;;;;;;;;;;;;;;;;;5095084;28;19979;-75
2022/07/14 04:43:58;;;;;;;;;;;;;;;;;;5095754;28;20007;-76
2022/07/14 04:46:25;;;;;;;;;;;;;;;;;;5094702;28;19924;-76
2022/07/14 04:54:20;;;;;;;;;;;;;;;;;;5094962;28;19931;-75
2022/07/14 04:56:47;;;;;;;;;;;;;;;;;;5094579;28;19928;-74
2022/07/14 04:59:13;;;;;;;;;;;;;;;;;;5095999;28;19928;-74
2022/07/14 05:01:40;;;;;;;;;;;;;;;;;;5114878;28;20007;-75
2022/07/14 05:04:08;;;;;;;;;;;;;;;;;;5115170;28;20441;-76
2022/07/14 05:06:35;;;;;;;;;;;;;;;;;;5115327;28;19924;-78
2022/07/14 05:09:02;;;;;;;;;;;;;;;;;;5115520;28;19924;-76
2022/07/14 05:11:29;;;;;;;;;;;;;;;;;;5116185;28;19966;-74
2022/07/14 05:13:55;;;;;;;;;;;;;;;;;;5150174;22;20436;-76
2022/07/14 05:16:22;;;;;;;;;;;;;;;;;;5114674;28;19945;-75
2022/07/14 05:18:48;;;;;;;;;;;;;;;;;;5117228;28;20037;-76
2022/07/14 05:21:16;;;;;;;;;;;;;;;;;;5114642;28;19975;-76
2022/07/14 05:23:43;;;;;;;;;;;;;;;;;;5100393;28;19985;-76
2022/07/14 05:26:13;;;;;;;;;;;;;;;;;;5094123;28;20382;-76
2022/07/14 05:28:39;;;;;;;;;;;;;;;;;;5094745;28;20366;-76
2022/07/14 05:31:06;;;;;;;;;;;;;;;;;;5099004;28;19963;-75
2022/07/14 05:33:32;;;;;;;;;;;;;;;;;;5095049;28;19963;-76
2022/07/14 05:35:59;;;;;;;;;;;;;;;;;;5102172;28;19924;-75
2022/07/14 05:38:27;;;;;;;;;;;;;;;;;;5113494;28;19935;-75
2022/07/14 05:40:54;;;;;;;;;;;;;;;;;;5107061;28;19928;-75
2022/07/14 05:43:21;;;;;;;;;;;;;;;;;;5096009;28;19969;-77
2022/07/14 05:45:48;;;;;;;;;;;;;;;;;;5095163;28;19977;-78
2022/07/14 05:48:14;;;;;;;;;;;;;;;;;;5094123;28;20120;-77
2022/07/14 05:50:41;;;;;;;;;;;;;;;;;;5094669;28;20374;-77
2022/07/14 05:53:08;;;;;;;;;;;;;;;;;;5094630;28;19931;-76
2022/07/14 05:55:36;;;;;;;;;;;;;;;;;;5094621;28;20087;-77
2022/07/14 05:58:02;;;;;;;;;;;;;;;;;;5093932;28;20556;-75
2022/07/14 06:00:28;;;;;;;;;;;;;;;;;;5106204;28;19963;-77
2022/07/14 06:02:55;;;;;;;;;;;;;;;;;;5114164;28;20527;-76
2022/07/14 06:05:21;;;;;;;;;;;;;;;;;;5114869;28;19977;-76
2022/07/14 06:07:48;;;;;;;;;;;;;;;;;;5114055;28;19969;-77
2022/07/14 06:10:14;;;;;;;;;;;;;;;;;;5114432;28;20352;-75
2022/07/14 06:12:42;;;;;;;;;;;;;;;;;;5114103;28;19924;-78
2022/07/14 06:15:09;;;;;;;;;;;;;;;;;;5113967;28;20359;-77
2022/07/14 06:17:36;;;;;;;;;;;;;;;;;;5113493;28;19928;-77
2022/07/14 06:20:07;;;;;;;;;;;;;;;;;;5113859;28;20022;-76
2022/07/14 06:22:34;;;;;;;;;;;;;;;;;;5113543;28;20671;-76
2022/07/14 06:25:00;;;;;;;;;;;;;;;;;;5113940;28;19930;-76
2022/07/14 06:27:27;;;;;;;;;;;;;;;;;;5113933;28;20006;-76
2022/07/14 06:29:55;;;;;;;;;;;;;;;;;;5114154;28;19924;-77
2022/07/14 06:32:23;;;;;;;;;;;;;;;;;;5113732;28;19971;-77
2022/07/14 06:34:49;;;;;;;;;;;;;;;;;;5113916;28;19924;-76
2022/07/14 06:37:16;;;;;;;;;;;;;;;;;;5113544;28;20240;-77
2022/07/14 06:39:43;;;;;;;;;;;;;;;;;;5113894;28;20018;-77
2022/07/14 06:42:09;;;;;;;;;;;;;;;;;;5113427;28;19992;-77
2022/07/14 06:44:36;;;;;;;;;;;;;;;;;;5113491;28;20289;-77
2022/07/14 06:47:04;;;;;;;;;;;;;;;;;;5112935;28;19931;-77
2022/07/14 06:49:30;;;;;;;;;;;;;;;;;;5113336;28;20010;-77
2022/07/14 06:51:56;;;;;;;;;;;;;;;;;;5113392;28;20015;-78
2022/07/14 06:54:23;;;;;;;;;;;;;;;;;;5113544;28;20346;-78
2022/07/14 06:56:49;;;;;;;;;;;;;;;;;;5113153;28;20010;-78
2022/07/14 06:59:16;;;;;;;;;;;;;;;;;;5113296;28;20018;-76
2022/07/14 07:01:42;;;;;;;;;;;;;;;;;;5112973;28;19970;-75
2022/07/14 07:04:10;;;;;;;;;;;;;;;;;;5113319;28;20010;-76
2022/07/14 07:06:44;;;;;;;;;;;;;;;;;;5112951;28;19928;-78
2022/07/14 07:09:11;;;;;;;;;;;;;;;;;;5113608;28;19972;-75
2022/07/14 07:11:37;;;;;;;;;;;;;;;;;;5113652;28;19982;-75
2022/07/14 07:14:04;;;;;;;;;;;;;;;;;;5114625;28;20079;-74
2022/07/14 07:16:31;;;;;;;;;;;;;;;;;;5105961;28;20439;-77
2022/07/14 07:18:57;;;;;;;;;;;;;;;;;;5090572;28;20006;-76
2022/07/14 07:21:25;;;;;;;;;;;;;;;;;;5090752;28;19950;-75
2022/07/14 07:23:52;;;;;;;;;;;;;;;;;;5090769;28;19986;-77
2022/07/14 07:26:21;;;;;;;;;;;;;;;;;;5089973;28;19931;-76
2022/07/14 07:28:47;;;;;;;;;;;;;;;;;;5090566;28;19928;-75
2022/07/14 07:31:14;;;;;;;;;;;;;;;;;;5090265;28;19959;-79
2022/07/14 07:33:41;;;;;;;;;;;;;;;;;;5090588;28;19931;-76
2022/07/14 07:36:07;;;;;;;;;;;;;;;;;;5090150;28;20491;-75
2022/07/14 07:38:35;;;;;;;;;;;;;;;;;;5089978;28;20558;-75
2022/07/14 07:41:02;;;;;;;;;;;;;;;;;;5089990;28;20398;-76
2022/07/14 07:43:28;;;;;;;;;;;;;;;;;;5089938;28;20038;-77
2022/07/14 07:45:55;;;;;;;;;;;;;;;;;;5090368;28;20019;-76
2022/07/14 07:48:21;;;;;;;;;;;;;;;;;;5090095;28;20457;-76
2022/07/14 07:50:48;;;;;;;;;;;;;;;;;;5090562;28;19956;-76
2022/07/14 07:53:15;;;;;;;;;;;;;;;;;;5090569;28;19968;-76
2022/07/14 07:55:43;;;;;;;;;;;;;;;;;;5090483;28;20019;-76
2022/07/14 07:58:10;;;;;;;;;;;;;;;;;;5090620;28;20357;-76
2022/07/14 08:00:36;;;;;;;;;;;;;;;;;;5104072;28;19959;-77
2022/07/14 08:03:03;;;;;;;;;;;;;;;;;;5110768;28;20006;-76
2022/07/14 08:05:30;;;;;;;;;;;;;;;;;;5110794;28;20002;-77
2022/07/14 08:07:57;;;;;;;;;;;;;;;;;;5110502;28;20429;-77
2022/07/14 08:10:24;;;;;;;;;;;;;;;;;;5110910;28;20422;-77
2022/07/14 08:12:52;;;;;;;;;;;;;;;;;;5110748;28;19966;-76
2022/07/14 08:15:18;;;;;;;;;;;;;;;;;;5111069;28;20323;-77
2022/07/14 08:17:45;;;;;;;;;;;;;;;;;;5110275;28;20335;-77
2022/07/14 08:20:12;;;;;;;;;;;;;;;;;;5110605;28;20541;-76
2022/07/14 08:22:39;;;;;;;;;;;;;;;;;;5110224;28;20321;-76
2022/07/14 08:27:40;;;;;;;;;;;;;;;;;;4915196;25;19924;-66
2022/07/14 08:30:09;;;;;;;;;;;;;;;;;;5093481;28;20082;-65
2022/07/14 08:32:37;;;;;;;;;;;;;;;;;;5093663;28;20023;-66
2022/07/14 08:35:04;;;;;;;;;;;;;;;;;;5093751;28;19946;-66
2022/07/14 08:37:30;;;;;;;;;;;;;;;;;;5093310;28;19928;-65
2022/07/14 08:39:57;;;;;;;;;;;;;;;;;;5093187;28;19928;-65
2022/07/14 08:42:24;;;;;;;;;;;;;;;;;;5093345;28;20023;-71
2022/07/14 08:44:52;;;;;;;;;;;;;;;;;;5094383;28;19935;-66
2022/07/14 08:47:20;;;;;;;;;;;;;;;;;;5093071;28;19924;-64
2022/07/14 08:49:47;;;;;;;;;;;;;;;;;;5093225;28;20482;-65
2022/07/14 08:52:13;;;;;;;;;;;;;;;;;;5093030;28;19925;-65
2022/07/14 08:54:40;;;;;;;;;;;;;;;;;;5092818;28;19932;-65
2022/07/14 08:57:06;;;;;;;;;;;;;;;;;;5094023;28;19924;-66
2022/07/14 08:59:33;;;;;;;;;;;;;;;;;;5096773;28;20525;-65
2022/07/14 09:02:00;;;;;;;;;;;;;;;;;;5113239;28;19931;-62
2022/07/14 09:04:29;;;;;;;;;;;;;;;;;;5113090;28;20291;-65
2022/07/14 09:06:56;;;;;;;;;;;;;;;;;;5112934;28;19927;-64
2022/07/14 09:09:24;;;;;;;;;;;;;;;;;;5113284;28;19928;-65
2022/07/14 09:11:55;;;;;;;;;;;;;;;;;;5113184;28;19924;-65
2022/07/14 09:14:22;;;;;;;;;;;;;;;;;;5112985;28;20515;-65
2022/07/14 09:16:49;;;;;;;;;;;;;;;;;;5113235;28;19928;-67
2022/07/14 09:19:18;;;;;;;;;;;;;;;;;;5112235;28;19924;-66
2022/07/14 09:21:59;;;;;;;;;;;;;;;;;;5110598;28;20331;-67
2022/07/14 09:24:26;;;;;;;;;;;;;;;;;;5113146;28;19930;-67
2022/07/14 09:26:53;;;;;;;;;;;;;;;;;;5112610;28;20287;-66
2022/07/14 09:29:21;;;;;;;;;;;;;;;;;;5113030;28;19931;-66
2022/07/14 09:31:48;;;;;;;;;;;;;;;;;;5113014;28;19931;-66
2022/07/14 09:34:26;;;;;;;;;;;;;;;;;;5112675;28;19942;-66
2022/07/14 09:37:09;;;;;;;;;;;;;;;;;;5112788;28;20513;-66
2022/07/14 09:39:36;;;;;;;;;;;;;;;;;;5112622;28;20445;-66
2022/07/14 09:42:02;;;;;;;;;;;;;;;;;;5112171;28;19923;-66
2022/07/14 09:44:30;;;;;;;;;;;;;;;;;;5112446;28;19931;-65
2022/07/14 09:46:57;;;;;;;;;;;;;;;;;;5112171;28;20018;-66
2022/07/14 09:49:24;;;;;;;;;;;;;;;;;;5112278;28;19967;-66
2022/07/14 09:51:52;;;;;;;;;;;;;;;;;;5112164;28;19928;-66
2022/07/14 09:54:34;;;;;;;;;;;;;;;;;;5112107;28;20380;-66
2022/07/14 09:57:02;;;;;;;;;;;;;;;;;;5111245;28;19930;-66
2022/07/14 09:59:29;;;;;;;;;;;;;;;;;;5111773;28;19924;-66
2022/07/14 10:01:56;;;;;;;;;;;;;;;;;;5111650;28;20050;-66
2022/07/14 10:04:22;;;;;;;;;;;;;;;;;;5108638;28;19924;-66
2022/07/14 10:06:49;;;;;;;;;;;;;;;;;;5111955;28;19928;-67
2022/07/14 10:09:16;;;;;;;;;;;;;;;;;;5112333;28;19946;-65
2022/07/14 10:11:43;;;;;;;;;;;;;;;;;;5112169;28;19927;-66
2022/07/14 10:14:11;;;;;;;;;;;;;;;;;;5112046;28;19923;-66
2022/07/14 10:16:38;;;;;;;;;;;;;;;;;;5111693;28;19931;-66
2022/07/14 10:19:05;;;;;;;;;;;;;;;;;;5111954;28;19977;-66
2022/07/14 10:21:33;;;;;;;;;;;;;;;;;;5111594;28;19930;-67
2022/07/14 10:24:00;;;;;;;;;;;;;;;;;;5111571;28;20406;-64
2022/07/14 10:26:27;;;;;;;;;;;;;;;;;;5111537;28;19930;-65
2022/07/14 10:28:53;;;;;;;;;;;;;;;;;;5112035;28;19924;-65
2022/07/14 10:31:25;;;;;;;;;;;;;;;;;;5111554;28;19930;-65
2022/07/14 10:33:57;;;;;;;;;;;;;;;;;;5111577;28;20018;-65
2022/07/14 10:36:27;;;;;;;;;;;;;;;;;;5111278;28;20022;-65
2022/07/14 10:39:17;;;;;;;;;;;;;;;;;;5111648;28;19950;-65
2022/07/14 10:42:01;;;;;;;;;;;;;;;;;;5085574;28;19931;-65
2022/07/14 10:44:29;;;;;;;;;;;;;;;;;;5111249;28;19924;-66
2022/07/14 10:47:08;;;;;;;;;;;;;;;;;;5111003;28;19931;-65
2022/07/14 10:49:49;;;;;;;;;;;;;;;;;;5111293;28;19924;-65
2022/07/14 10:52:25;;;;;;;;;;;;;;;;;;5109844;28;19930;-65
2022/07/14 10:55:06;;;;;;;;;;;;;;;;;;5111067;28;19924;-62
2022/07/14 10:57:33;;;;;;;;;;;;;;;;;;5110410;28;19923;-65
2022/07/14 11:00:00;;;;;;;;;;;;;;;;;;5103909;28;19924;-64
2022/07/14 11:02:36;;;;;;;;;;;;;;;;;;5090356;28;19924;-67
2022/07/14 11:05:18;;;;;;;;;;;;;;;;;;5090808;28;19924;-65
2022/07/14 11:07:46;;;;;;;;;;;;;;;;;;5089687;28;19927;-64
2022/07/14 11:10:31;;;;;;;;;;;;;;;;;;5104375;28;19938;-65
2022/07/14 11:13:09;;;;;;;;;;;;;;;;;;5109913;22;23400;-78
2022/07/14 11:15:39;;;;;;;;;;;;;;;;;;5089982;28;19924;-76
2022/07/14 11:18:24;;;;;;;;;;;;;;;;;;5090530;28;20011;-76
2022/07/14 11:20:55;;;;;;;;;;;;;;;;;;5090843;28;19927;-76
2022/07/14 11:23:23;;;;;;;;;;;;;;;;;;5091246;28;19924;-77
2022/07/14 11:25:49;;;;;;;;;;;;;;;;;;5090384;28;20429;-76
2022/07/14 11:28:38;;;;;;;;;;;;;;;;;;5090453;28;20022;-76
2022/07/14 11:31:12;;;;;;;;;;;;;;;;;;5091114;28;19967;-77
2022/07/14 11:36:17;;;;;;;;;;;;;;;;;;5090493;28;20018;-76
2022/07/14 11:36:28;;;;;;;;;;;;;;;;;;5090325;28;20313;-77
2022/07/14 11:39:10;;;;;;;;;;;;;;;;;;5090458;28;19924;-76
2022/07/14 11:41:43;;;;;;;;;;;;;;;;;;5089739;28;20020;-76
2022/07/14 11:44:38;;;;;;;;;;;;;;;;;;5090753;28;19974;-76
2022/07/14 11:47:06;;;;;;;;;;;;;;;;;;5090199;28;19924;-76
2022/07/14 11:49:33;;;;;;;;;;;;;;;;;;5091361;28;19983;-76
2022/07/14 11:52:02;;;;;;;;;;;;;;;;;;5092005;28;19982;-76
2022/07/14 11:54:28;;;;;;;;;;;;;;;;;;5091632;28;20378;-75
2022/07/14 11:57:01;;;;;;;;;;;;;;;;;;5090502;28;19931;-77
2022/07/14 11:59:28;;;;;;;;;;;;;;;;;;5090452;28;19947;-76
2022/07/14 12:02:06;;;;;;;;;;;;;;;;;;5091192;28;19970;-76
2022/07/14 12:04:32;;;;;;;;;;;;;;;;;;5094234;28;19931;-77
2022/07/14 12:07:01;;;;;;;;;;;;;;;;;;5093894;28;20302;-76
2022/07/14 12:09:29;;;;;;;;;;;;;;;;;;5095858;28;20321;-77
2022/07/14 12:11:56;;;;;;;;;;;;;;;;;;5094668;28;19932;-77
2022/07/14 12:14:24;;;;;;;;;;;;;;;;;;5093796;28;19924;-77
2022/07/14 12:16:50;;;;;;;;;;;;;;;;;;5093759;28;20465;-77
2022/07/14 12:19:26;;;;;;;;;;;;;;;;;;5094196;28;19989;-77
2022/07/14 12:21:57;;;;;;;;;;;;;;;;;;5093789;28;20011;-76
2022/07/14 12:24:25;;;;;;;;;;;;;;;;;;5093853;28;19924;-77
2022/07/14 12:26:52;;;;;;;;;;;;;;;;;;5093180;28;19974;-77
2022/07/14 12:29:18;;;;;;;;;;;;;;;;;;5094904;28;19959;-77
2022/07/14 12:31:45;;;;;;;;;;;;;;;;;;5096014;28;19959;-77
2022/07/14 12:34:12;;;;;;;;;;;;;;;;;;5081635;28;20328;-78
2022/07/14 12:36:38;;;;;;;;;;;;;;;;;;5109948;28;19963;-78
2022/07/14 12:39:06;;;;;;;;;;;;;;;;;;5117009;28;19959;-77
2022/07/14 12:41:34;;;;;;;;;;;;;;;;;;5114440;28;19923;-77
2022/07/14 12:44:04;;;;;;;;;;;;;;;;;;5113297;28;19978;-77
2022/07/14 12:46:31;;;;;;;;;;;;;;;;;;5114255;28;20018;-78
2022/07/14 12:48:58;;;;;;;;;;;;;;;;;;5114102;28;20541;-77
2022/07/14 12:51:26;;;;;;;;;;;;;;;;;;5114645;28;20006;-78
2022/07/14 12:53:56;;;;;;;;;;;;;;;;;;5115728;28;19950;-77
2022/07/14 12:56:23;;;;;;;;;;;;;;;;;;5116006;28;20026;-77
2022/07/14 12:58:51;;;;;;;;;;;;;;;;;;5116038;28;19924;-77
2022/07/14 13:01:18;;;;;;;;;;;;;;;;;;5096165;28;20046;-77
2022/07/14 13:03:53;;;;;;;;;;;;;;;;;;5093224;28;19924;-77
2022/07/14 13:06:19;;;;;;;;;;;;;;;;;;5093216;28;19927;-77
2022/07/14 13:08:46;;;;;;;;;;;;;;;;;;5092620;28;20018;-78
2022/07/14 13:11:13;;;;;;;;;;;;;;;;;;5093366;28;19975;-77
2022/07/14 13:13:41;;;;;;;;;;;;;;;;;;5091890;28;19970;-76
2022/07/14 13:16:15;;;;;;;;;;;;;;;;;;5092787;28;20007;-78
2022/07/14 13:18:57;;;;;;;;;;;;;;;;;;5092880;28;20019;-77
2022/07/14 13:21:39;;;;;;;;;;;;;;;;;;5092872;28;20018;-77
2022/07/14 13:24:11;;;;;;;;;;;;;;;;;;5092486;28;19970;-78
2022/07/14 13:26:38;;;;;;;;;;;;;;;;;;5092975;28;19924;-77
2022/07/14 13:29:04;;;;;;;;;;;;;;;;;;5092634;28;19960;-77
2022/07/14 13:31:32;;;;;;;;;;;;;;;;;;5093021;28;20003;-77
2022/07/14 13:34:00;;;;;;;;;;;;;;;;;;5093609;28;20036;-78
2022/07/14 13:36:26;;;;;;;;;;;;;;;;;;5093430;28;19924;-77
2022/07/14 13:38:53;;;;;;;;;;;;;;;;;;5093114;28;19971;-78
2022/07/14 13:41:20;;;;;;;;;;;;;;;;;;5095493;28;19970;-78
2022/07/14 13:43:50;;;;;;;;;;;;;;;;;;5095380;28;20410;-78
2022/07/14 13:46:17;;;;;;;;;;;;;;;;;;5094742;28;20286;-78
2022/07/14 13:48:46;;;;;;;;;;;;;;;;;;5095344;28;19975;-77
2022/07/14 13:53:58;;;;;;;;;;;;;;;;;;5094150;28;19950;-78
2022/07/14 13:56:25;;;;;;;;;;;;;;;;;;5094290;28;19989;-78
2022/07/14 13:58:51;;;;;;;;;;;;;;;;;;5094871;28;19954;-78
2022/07/14 14:01:18;;;;;;;;;;;;;;;;;;5095045;28;19968;-78
2022/07/14 14:03:46;;;;;;;;;;;;;;;;;;5094296;28;19924;-78
2022/07/14 14:06:14;;;;;;;;;;;;;;;;;;5096015;28;20287;-78
2022/07/14 14:08:41;;;;;;;;;;;;;;;;;;5096948;28;20014;-78
2022/07/14 14:11:08;;;;;;;;;;;;;;;;;;5095752;28;19978;-78
2022/07/14 14:13:35;;;;;;;;;;;;;;;;;;5098574;28;19924;-78
2022/07/14 14:16:03;;;;;;;;;;;;;;;;;;5096216;28;19955;-77
2022/07/14 14:18:30;;;;;;;;;;;;;;;;;;5091026;28;20011;-78
2022/07/14 14:20:59;;;;;;;;;;;;;;;;;;5082382;28;20360;-78
2022/07/14 14:23:26;;;;;;;;;;;;;;;;;;5083603;28;19924;-77
2022/07/14 14:25:53;;;;;;;;;;;;;;;;;;5085908;28;19970;-77
2022/07/14 14:28:20;;;;;;;;;;;;;;;;;;5078547;28;19956;-77
2022/07/14 14:30:47;;;;;;;;;;;;;;;;;;5075719;28;20511;-77
2022/07/14 14:33:14;;;;;;;;;;;;;;;;;;5081191;28;19964;-77
2022/07/14 14:35:41;;;;;;;;;;;;;;;;;;5080317;28;19925;-77
2022/07/14 14:38:08;;;;;;;;;;;;;;;;;;5084816;28;19960;-77
2022/07/14 14:40:35;;;;;;;;;;;;;;;;;;5091434;28;19963;-77
2022/07/14 14:43:02;;;;;;;;;;;;;;;;;;5091864;28;20006;-78
2022/07/14 14:45:29;;;;;;;;;;;;;;;;;;5091585;28;19923;-77
2022/07/14 14:47:55;;;;;;;;;;;;;;;;;;5091238;28;19970;-78
2022/07/14 14:50:21;;;;;;;;;;;;;;;;;;5091792;28;19966;-77
2022/07/14 14:52:49;;;;;;;;;;;;;;;;;;5105710;28;19976;-78
2022/07/14 14:55:18;;;;;;;;;;;;;;;;;;5113643;28;19976;-77
2022/07/14 14:57:45;;;;;;;;;;;;;;;;;;5112697;28;20061;-77
2022/07/14 15:00:12;;;;;;;;;;;;;;;;;;5103785;28;20377;-77
2022/07/14 15:02:38;;;;;;;;;;;;;;;;;;5086396;28;20349;-77
2022/07/14 15:05:05;;;;;;;;;;;;;;;;;;5093090;28;20015;-77
2022/07/14 15:07:32;;;;;;;;;;;;;;;;;;5092556;28;20353;-77
2022/07/14 15:09:59;;;;;;;;;;;;;;;;;;5093100;28;19924;-77
2022/07/14 15:12:26;;;;;;;;;;;;;;;;;;5093137;28;20018;-77
2022/07/14 15:14:54;;;;;;;;;;;;;;;;;;5092120;28;20018;-78
2022/07/14 15:17:21;;;;;;;;;;;;;;;;;;5092621;28;20421;-78
2022/07/14 15:19:48;;;;;;;;;;;;;;;;;;5092931;28;19930;-78
2022/07/14 15:22:16;;;;;;;;;;;;;;;;;;5093254;28;19935;-78
2022/07/14 15:24:43;;;;;;;;;;;;;;;;;;5093431;28;19999;-77
2022/07/14 15:27:10;;;;;;;;;;;;;;;;;;5092274;28;19931;-77
2022/07/14 15:29:38;;;;;;;;;;;;;;;;;;5092388;28;19931;-77
2022/07/14 15:32:05;;;;;;;;;;;;;;;;;;5092349;28;19999;-77
2022/07/14 15:34:31;;;;;;;;;;;;;;;;;;5092296;28;20040;-77
2022/07/14 15:36:57;;;;;;;;;;;;;;;;;;5093781;28;19968;-77
2022/07/14 15:42:08;;;;;;;;;;;;;;;;;;5096958;28;19979;-78
2022/07/14 15:44:35;;;;;;;;;;;;;;;;;;5096732;28;19967;-78
2022/07/14 15:47:02;;;;;;;;;;;;;;;;;;5097283;28;20283;-78
2022/07/14 15:49:29;;;;;;;;;;;;;;;;;;5096144;28;19924;-78
2022/07/14 15:51:56;;;;;;;;;;;;;;;;;;5096937;28;19999;-78
2022/07/14 15:54:23;;;;;;;;;;;;;;;;;;5095972;28;19975;-77
2022/07/14 15:56:49;;;;;;;;;;;;;;;;;;5095914;28;19924;-78
2022/07/14 15:59:16;;;;;;;;;;;;;;;;;;5095909;28;19924;-77
2022/07/14 16:01:42;;;;;;;;;;;;;;;;;;5095428;28;19924;-77
2022/07/14 16:04:10;;;;;;;;;;;;;;;;;;5096104;28;20023;-77
2022/07/14 16:06:36;;;;;;;;;;;;;;;;;;5094177;28;20006;-76
2022/07/14 16:09:03;;;;;;;;;;;;;;;;;;5095018;28;20016;-76
2022/07/14 16:11:30;;;;;;;;;;;;;;;;;;5094772;28;19970;-77
2022/07/14 16:13:56;;;;;;;;;;;;;;;;;;5094654;28;20367;-77
2022/07/14 16:16:23;;;;;;;;;;;;;;;;;;5091486;28;20326;-77
2022/07/14 16:18:49;;;;;;;;;;;;;;;;;;5090169;28;20343;-76
2022/07/14 16:21:17;;;;;;;;;;;;;;;;;;5094881;28;19927;-76
2022/07/14 16:23:44;;;;;;;;;;;;;;;;;;5094415;28;20010;-76
2022/07/14 16:26:12;;;;;;;;;;;;;;;;;;5093992;28;20014;-77
2022/07/14 16:28:39;;;;;;;;;;;;;;;;;;5094046;28;20041;-77
2022/07/14 16:31:07;;;;;;;;;;;;;;;;;;5094105;28;20014;-77
2022/07/14 16:33:34;;;;;;;;;;;;;;;;;;5093693;28;20390;-77
2022/07/14 16:36:00;;;;;;;;;;;;;;;;;;5094401;28;19969;-77
2022/07/14 16:38:28;;;;;;;;;;;;;;;;;;5094228;28;19964;-77
2022/07/14 16:40:55;;;;;;;;;;;;;;;;;;5094541;28;20023;-78
2022/07/14 16:43:21;;;;;;;;;;;;;;;;;;5094566;28;19991;-78
2022/07/14 16:45:49;;;;;;;;;;;;;;;;;;5094795;28;20016;-78
2022/07/14 16:48:16;;;;;;;;;;;;;;;;;;5093985;28;19940;-77
2022/07/14 16:50:42;;;;;;;;;;;;;;;;;;5094992;28;19975;-78
2022/07/14 16:53:08;;;;;;;;;;;;;;;;;;5095158;28;20013;-78
2022/07/14 16:55:36;;;;;;;;;;;;;;;;;;5095239;28;19924;-78
2022/07/14 16:58:03;;;;;;;;;;;;;;;;;;5094363;28;19976;-79
2022/07/14 17:00:29;;;;;;;;;;;;;;;;;;5095399;28;19963;-78
2022/07/14 17:02:56;;;;;;;;;;;;;;;;;;5095234;28;19924;-78
2022/07/14 17:08:03;;;;;;;;;;;;;;;;;;5081527;28;20036;-78
2022/07/14 17:10:29;;;;;;;;;;;;;;;;;;5094828;28;19971;-77